sensor_id;sensor_type;location;lat;lon;timestamp;P1;durP1;ratioP1;P2;durP2;ratioP2
15256;SDS011;7731;50.720;6.912;2022-12-18T00:01:33;14.70;;;7.90;;
15256;SDS011;7731;50.720;6.912;2022-12-18T00:04:05;14.60;;;8.37;;
15256;SDS011;7731;50.720;6.912;2022-12-18T00:06:45;15.13;;;8.40;;
15256;SDS011;7731;50.720;6.912;2022-12-18T00:09:15;13.77;;;8.60;;
15256;SDS011;7731;50.720;6.912;2022-12-18T00:11:51;11.33;;;7.07;;
15256;SDS011;7731;50.720;6.912;2022-12-18T00:14:23;14.40;;;7.50;;
15256;SDS011;7731;50.720;6.912;2022-12-18T00:16:53;15.63;;;7.67;;
15256;SDS011;7731;50.720;6.912;2022-12-18T00:19:26;12.33;;;7.63;;
15256;SDS011;7731;50.720;6.912;2022-12-18T00:21:59;12.70;;;7.83;;
15256;SDS011;7731;50.720;6.912;2022-12-18T00:24:29;13.30;;;7.30;;
15256;SDS011;7731;50.720;6.912;2022-12-18T00:26:59;14.00;;;6.87;;
15256;SDS011;7731;50.720;6.912;2022-12-18T00:29:32;13.10;;;8.20;;
15256;SDS011;7731;50.720;6.912;2022-12-18T00:32:02;12.83;;;8.07;;
15256;SDS011;7731;50.720;6.912;2022-12-18T00:34:32;14.57;;;9.13;;
15256;SDS011;7731;50.720;6.912;2022-12-18T00:37:03;19.00;;;12.37;;
15256;SDS011;7731;50.720;6.912;2022-12-18T00:39:33;16.87;;;11.80;;
15256;SDS011;7731;50.720;6.912;2022-12-18T00:42:03;14.10;;;10.27;;
15256;SDS011;7731;50.720;6.912;2022-12-18T00:44:53;16.43;;;11.30;;
15256;SDS011;7731;50.720;6.912;2022-12-18T00:47:26;18.63;;;11.10;;
15256;SDS011;7731;50.720;6.912;2022-12-18T00:49:56;15.77;;;10.30;;
15256;SDS011;7731;50.720;6.912;2022-12-18T00:52:28;16.23;;;10.27;;
15256;SDS011;7731;50.720;6.912;2022-12-18T00:54:58;14.63;;;9.97;;
15256;SDS011;7731;50.720;6.912;2022-12-18T00:57:32;15.00;;;9.97;;
15256;SDS011;7731;50.720;6.912;2022-12-18T01:00:05;16.03;;;10.07;;
15256;SDS011;7731;50.720;6.912;2022-12-18T01:02:39;17.13;;;10.87;;
15256;SDS011;7731;50.720;6.912;2022-12-18T01:05:12;15.43;;;9.90;;
15256;SDS011;7731;50.720;6.912;2022-12-18T01:07:43;17.17;;;10.70;;
15256;SDS011;7731;50.720;6.912;2022-12-18T01:10:16;15.37;;;10.40;;
15256;SDS011;7731;50.720;6.912;2022-12-18T01:12:46;15.40;;;10.43;;
15256;SDS011;7731;50.720;6.912;2022-12-18T01:15:19;14.43;;;9.90;;
15256;SDS011;7731;50.720;6.912;2022-12-18T01:17:51;15.33;;;10.93;;
15256;SDS011;7731;50.720;6.912;2022-12-18T01:20:21;16.67;;;10.83;;
15256;SDS011;7731;50.720;6.912;2022-12-18T01:22:52;15.73;;;10.87;;
15256;SDS011;7731;50.720;6.912;2022-12-18T01:25:22;17.13;;;10.53;;
15256;SDS011;7731;50.720;6.912;2022-12-18T01:27:52;16.53;;;10.53;;
15256;SDS011;7731;50.720;6.912;2022-12-18T01:30:24;19.80;;;12.50;;
15256;SDS011;7731;50.720;6.912;2022-12-18T01:32:55;18.77;;;11.70;;
15256;SDS011;7731;50.720;6.912;2022-12-18T01:35:25;15.70;;;11.27;;
15256;SDS011;7731;50.720;6.912;2022-12-18T01:37:55;17.13;;;10.93;;
15256;SDS011;7731;50.720;6.912;2022-12-18T01:40:26;17.43;;;11.17;;
15256;SDS011;7731;50.720;6.912;2022-12-18T01:42:58;18.23;;;11.23;;
15256;SDS011;7731;50.720;6.912;2022-12-18T01:45:30;16.33;;;11.47;;
15256;SDS011;7731;50.720;6.912;2022-12-18T01:48:02;15.70;;;11.00;;
15256;SDS011;7731;50.720;6.912;2022-12-18T01:50:37;17.50;;;11.57;;
15256;SDS011;7731;50.720;6.912;2022-12-18T01:53:11;20.23;;;11.53;;
15256;SDS011;7731;50.720;6.912;2022-12-18T01:55:46;18.00;;;12.10;;
15256;SDS011;7731;50.720;6.912;2022-12-18T01:58:20;19.47;;;11.60;;
15256;SDS011;7731;50.720;6.912;2022-12-18T02:01:00;17.27;;;11.07;;
15256;SDS011;7731;50.720;6.912;2022-12-18T02:03:30;16.67;;;11.13;;
15256;SDS011;7731;50.720;6.912;2022-12-18T02:06:03;18.67;;;11.47;;
15256;SDS011;7731;50.720;6.912;2022-12-18T02:08:45;17.77;;;11.33;;
15256;SDS011;7731;50.720;6.912;2022-12-18T02:11:30;18.00;;;10.93;;
15256;SDS011;7731;50.720;6.912;2022-12-18T02:14:21;17.90;;;11.40;;
15256;SDS011;7731;50.720;6.912;2022-12-18T02:17:00;17.57;;;11.20;;
15256;SDS011;7731;50.720;6.912;2022-12-18T02:19:43;17.40;;;11.60;;
15256;SDS011;7731;50.720;6.912;2022-12-18T02:22:34;18.17;;;11.80;;
15256;SDS011;7731;50.720;6.912;2022-12-18T02:25:22;18.53;;;12.10;;
15256;SDS011;7731;50.720;6.912;2022-12-18T02:28:18;18.03;;;11.90;;
15256;SDS011;7731;50.720;6.912;2022-12-18T02:30:55;19.17;;;12.03;;
15256;SDS011;7731;50.720;6.912;2022-12-18T02:33:33;20.43;;;12.93;;
15256;SDS011;7731;50.720;6.912;2022-12-18T02:36:07;20.33;;;12.07;;
15256;SDS011;7731;50.720;6.912;2022-12-18T02:38:40;16.43;;;11.07;;
15256;SDS011;7731;50.720;6.912;2022-12-18T02:41:14;20.37;;;11.90;;
15256;SDS011;7731;50.720;6.912;2022-12-18T02:43:52;19.90;;;12.57;;
15256;SDS011;7731;50.720;6.912;2022-12-18T02:46:31;20.17;;;12.17;;
15256;SDS011;7731;50.720;6.912;2022-12-18T02:49:08;15.60;;;10.20;;
15256;SDS011;7731;50.720;6.912;2022-12-18T02:51:59;17.27;;;11.20;;
15256;SDS011;7731;50.720;6.912;2022-12-18T02:54:51;16.00;;;10.87;;
15256;SDS011;7731;50.720;6.912;2022-12-18T02:57:48;20.00;;;12.20;;
15256;SDS011;7731;50.720;6.912;2022-12-18T03:00:28;20.00;;;12.00;;
15256;SDS011;7731;50.720;6.912;2022-12-18T03:03:07;16.87;;;11.37;;
15256;SDS011;7731;50.720;6.912;2022-12-18T03:05:47;19.23;;;12.53;;
15256;SDS011;7731;50.720;6.912;2022-12-18T03:08:26;15.40;;;9.40;;
15256;SDS011;7731;50.720;6.912;2022-12-18T03:11:01;14.47;;;8.63;;
15256;SDS011;7731;50.720;6.912;2022-12-18T03:13:36;14.23;;;9.07;;
15256;SDS011;7731;50.720;6.912;2022-12-18T03:16:15;14.00;;;8.77;;
15256;SDS011;7731;50.720;6.912;2022-12-18T03:18:53;18.50;;;9.80;;
15256;SDS011;7731;50.720;6.912;2022-12-18T03:21:32;18.07;;;9.77;;
15256;SDS011;7731;50.720;6.912;2022-12-18T03:24:09;17.70;;;9.40;;
15256;SDS011;7731;50.720;6.912;2022-12-18T03:26:43;15.60;;;9.30;;
15256;SDS011;7731;50.720;6.912;2022-12-18T03:29:18;18.07;;;9.47;;
15256;SDS011;7731;50.720;6.912;2022-12-18T03:32:01;19.47;;;9.43;;
15256;SDS011;7731;50.720;6.912;2022-12-18T03:34:37;18.80;;;10.20;;
15256;SDS011;7731;50.720;6.912;2022-12-18T03:37:10;18.97;;;10.13;;
15256;SDS011;7731;50.720;6.912;2022-12-18T03:39:41;18.70;;;9.53;;
15256;SDS011;7731;50.720;6.912;2022-12-18T03:42:13;18.33;;;9.90;;
15256;SDS011;7731;50.720;6.912;2022-12-18T03:44:56;21.33;;;11.47;;
15256;SDS011;7731;50.720;6.912;2022-12-18T03:47:41;16.80;;;9.20;;
15256;SDS011;7731;50.720;6.912;2022-12-18T03:50:31;16.67;;;9.53;;
15256;SDS011;7731;50.720;6.912;2022-12-18T03:53:17;19.60;;;11.33;;
15256;SDS011;7731;50.720;6.912;2022-12-18T03:56:02;14.73;;;8.37;;
15256;SDS011;7731;50.720;6.912;2022-12-18T03:58:37;15.73;;;8.80;;
15256;SDS011;7731;50.720;6.912;2022-12-18T04:01:12;14.60;;;8.00;;
15256;SDS011;7731;50.720;6.912;2022-12-18T04:03:50;16.00;;;9.03;;
15256;SDS011;7731;50.720;6.912;2022-12-18T04:06:22;16.93;;;8.27;;
15256;SDS011;7731;50.720;6.912;2022-12-18T04:08:53;15.23;;;7.33;;
15256;SDS011;7731;50.720;6.912;2022-12-18T04:11:24;15.50;;;8.70;;
15256;SDS011;7731;50.720;6.912;2022-12-18T04:13:55;16.67;;;8.90;;
15256;SDS011;7731;50.720;6.912;2022-12-18T04:16:32;14.27;;;7.90;;
15256;SDS011;7731;50.720;6.912;2022-12-18T04:19:05;13.57;;;8.37;;
15256;SDS011;7731;50.720;6.912;2022-12-18T04:21:35;17.07;;;10.23;;
15256;SDS011;7731;50.720;6.912;2022-12-18T04:24:06;15.47;;;7.87;;
15256;SDS011;7731;50.720;6.912;2022-12-18T04:26:37;14.40;;;8.97;;
15256;SDS011;7731;50.720;6.912;2022-12-18T04:29:08;15.80;;;9.30;;
15256;SDS011;7731;50.720;6.912;2022-12-18T04:31:38;15.23;;;8.30;;
15256;SDS011;7731;50.720;6.912;2022-12-18T04:34:12;18.83;;;10.63;;
15256;SDS011;7731;50.720;6.912;2022-12-18T04:36:42;15.70;;;8.93;;
15256;SDS011;7731;50.720;6.912;2022-12-18T04:39:13;16.20;;;9.57;;
15256;SDS011;7731;50.720;6.912;2022-12-18T04:41:47;17.07;;;9.03;;
15256;SDS011;7731;50.720;6.912;2022-12-18T04:44:18;16.77;;;9.20;;
15256;SDS011;7731;50.720;6.912;2022-12-18T04:46:49;16.03;;;9.37;;
15256;SDS011;7731;50.720;6.912;2022-12-18T04:49:23;16.33;;;9.20;;
15256;SDS011;7731;50.720;6.912;2022-12-18T04:51:53;15.53;;;8.87;;
15256;SDS011;7731;50.720;6.912;2022-12-18T04:54:23;18.07;;;8.73;;
15256;SDS011;7731;50.720;6.912;2022-12-18T04:56:54;15.10;;;9.17;;
15256;SDS011;7731;50.720;6.912;2022-12-18T04:59:26;15.50;;;10.03;;
15256;SDS011;7731;50.720;6.912;2022-12-18T05:01:56;16.03;;;9.43;;
15256;SDS011;7731;50.720;6.912;2022-12-18T05:04:29;17.17;;;9.77;;
15256;SDS011;7731;50.720;6.912;2022-12-18T05:06:59;16.50;;;10.07;;
15256;SDS011;7731;50.720;6.912;2022-12-18T05:09:29;21.03;;;9.93;;
15256;SDS011;7731;50.720;6.912;2022-12-18T05:11:59;17.70;;;10.57;;
15256;SDS011;7731;50.720;6.912;2022-12-18T05:14:30;18.10;;;10.47;;
15256;SDS011;7731;50.720;6.912;2022-12-18T05:17:00;19.00;;;10.30;;
15256;SDS011;7731;50.720;6.912;2022-12-18T05:19:32;19.97;;;12.33;;
15256;SDS011;7731;50.720;6.912;2022-12-18T05:22:08;19.53;;;10.23;;
15256;SDS011;7731;50.720;6.912;2022-12-18T05:24:39;18.23;;;11.37;;
15256;SDS011;7731;50.720;6.912;2022-12-18T05:27:09;16.80;;;10.13;;
15256;SDS011;7731;50.720;6.912;2022-12-18T05:29:39;21.53;;;11.67;;
15256;SDS011;7731;50.720;6.912;2022-12-18T05:32:09;20.37;;;11.07;;
15256;SDS011;7731;50.720;6.912;2022-12-18T05:34:42;18.30;;;9.83;;
15256;SDS011;7731;50.720;6.912;2022-12-18T05:37:12;19.60;;;10.97;;
15256;SDS011;7731;50.720;6.912;2022-12-18T05:39:43;16.23;;;10.57;;
15256;SDS011;7731;50.720;6.912;2022-12-18T05:42:13;17.50;;;10.03;;
15256;SDS011;7731;50.720;6.912;2022-12-18T05:44:43;18.03;;;10.70;;
15256;SDS011;7731;50.720;6.912;2022-12-18T05:47:14;19.50;;;10.60;;
15256;SDS011;7731;50.720;6.912;2022-12-18T05:49:46;20.73;;;11.10;;
15256;SDS011;7731;50.720;6.912;2022-12-18T05:52:16;20.20;;;11.37;;
15256;SDS011;7731;50.720;6.912;2022-12-18T05:54:47;21.77;;;10.63;;
15256;SDS011;7731;50.720;6.912;2022-12-18T05:57:17;19.17;;;11.23;;
15256;SDS011;7731;50.720;6.912;2022-12-18T05:59:47;19.53;;;11.40;;
15256;SDS011;7731;50.720;6.912;2022-12-18T06:02:18;19.27;;;11.63;;
15256;SDS011;7731;50.720;6.912;2022-12-18T06:04:56;20.53;;;10.83;;
15256;SDS011;7731;50.720;6.912;2022-12-18T06:07:26;20.83;;;11.27;;
15256;SDS011;7731;50.720;6.912;2022-12-18T06:09:56;21.97;;;12.13;;
15256;SDS011;7731;50.720;6.912;2022-12-18T06:12:26;19.47;;;11.00;;
15256;SDS011;7731;50.720;6.912;2022-12-18T06:14:57;18.60;;;11.63;;
15256;SDS011;7731;50.720;6.912;2022-12-18T06:17:28;18.73;;;10.87;;
15256;SDS011;7731;50.720;6.912;2022-12-18T06:20:01;19.40;;;11.23;;
15256;SDS011;7731;50.720;6.912;2022-12-18T06:22:36;20.17;;;11.70;;
15256;SDS011;7731;50.720;6.912;2022-12-18T06:25:07;22.63;;;11.60;;
15256;SDS011;7731;50.720;6.912;2022-12-18T06:27:38;20.13;;;11.33;;
15256;SDS011;7731;50.720;6.912;2022-12-18T06:30:10;20.07;;;10.80;;
15256;SDS011;7731;50.720;6.912;2022-12-18T06:32:44;23.10;;;11.53;;
15256;SDS011;7731;50.720;6.912;2022-12-18T06:35:24;20.27;;;11.60;;
15256;SDS011;7731;50.720;6.912;2022-12-18T06:37:54;22.80;;;12.43;;
15256;SDS011;7731;50.720;6.912;2022-12-18T06:40:24;21.03;;;11.60;;
15256;SDS011;7731;50.720;6.912;2022-12-18T06:42:55;21.13;;;11.30;;
15256;SDS011;7731;50.720;6.912;2022-12-18T06:45:27;18.77;;;12.17;;
15256;SDS011;7731;50.720;6.912;2022-12-18T06:47:57;20.10;;;11.53;;
15256;SDS011;7731;50.720;6.912;2022-12-18T06:50:41;20.63;;;12.70;;
15256;SDS011;7731;50.720;6.912;2022-12-18T06:53:11;18.20;;;10.97;;
15256;SDS011;7731;50.720;6.912;2022-12-18T06:55:42;21.83;;;10.73;;
15256;SDS011;7731;50.720;6.912;2022-12-18T06:58:13;16.63;;;10.33;;
15256;SDS011;7731;50.720;6.912;2022-12-18T07:00:43;18.67;;;11.03;;
15256;SDS011;7731;50.720;6.912;2022-12-18T07:03:14;18.57;;;11.37;;
15256;SDS011;7731;50.720;6.912;2022-12-18T07:05:48;23.07;;;12.07;;
15256;SDS011;7731;50.720;6.912;2022-12-18T07:08:18;20.17;;;11.47;;
15256;SDS011;7731;50.720;6.912;2022-12-18T07:10:49;19.63;;;12.13;;
15256;SDS011;7731;50.720;6.912;2022-12-18T07:13:22;19.17;;;10.80;;
15256;SDS011;7731;50.720;6.912;2022-12-18T07:15:53;20.30;;;12.60;;
15256;SDS011;7731;50.720;6.912;2022-12-18T07:18:23;20.30;;;10.50;;
15256;SDS011;7731;50.720;6.912;2022-12-18T07:20:56;17.93;;;11.60;;
15256;SDS011;7731;50.720;6.912;2022-12-18T07:23:31;22.10;;;12.00;;
15256;SDS011;7731;50.720;6.912;2022-12-18T07:26:05;17.43;;;10.47;;
15256;SDS011;7731;50.720;6.912;2022-12-18T07:28:39;18.80;;;11.97;;
15256;SDS011;7731;50.720;6.912;2022-12-18T07:31:12;21.40;;;12.30;;
15256;SDS011;7731;50.720;6.912;2022-12-18T07:33:47;23.50;;;12.17;;
15256;SDS011;7731;50.720;6.912;2022-12-18T07:36:27;18.27;;;11.47;;
15256;SDS011;7731;50.720;6.912;2022-12-18T07:38:57;19.27;;;10.97;;
15256;SDS011;7731;50.720;6.912;2022-12-18T07:41:29;19.03;;;10.43;;
15256;SDS011;7731;50.720;6.912;2022-12-18T07:44:00;21.97;;;11.97;;
15256;SDS011;7731;50.720;6.912;2022-12-18T07:46:31;20.43;;;12.40;;
15256;SDS011;7731;50.720;6.912;2022-12-18T07:49:01;18.73;;;11.43;;
15256;SDS011;7731;50.720;6.912;2022-12-18T07:51:36;17.40;;;11.37;;
15256;SDS011;7731;50.720;6.912;2022-12-18T07:54:07;22.37;;;10.87;;
15256;SDS011;7731;50.720;6.912;2022-12-18T07:56:37;21.47;;;11.63;;
15256;SDS011;7731;50.720;6.912;2022-12-18T07:59:09;21.63;;;11.83;;
15256;SDS011;7731;50.720;6.912;2022-12-18T08:01:40;20.90;;;12.27;;
15256;SDS011;7731;50.720;6.912;2022-12-18T08:04:13;21.93;;;11.63;;
15256;SDS011;7731;50.720;6.912;2022-12-18T08:06:47;20.23;;;11.33;;
15256;SDS011;7731;50.720;6.912;2022-12-18T08:09:18;20.97;;;11.77;;
15256;SDS011;7731;50.720;6.912;2022-12-18T08:11:48;21.30;;;12.60;;
15256;SDS011;7731;50.720;6.912;2022-12-18T08:14:19;21.63;;;11.93;;
15256;SDS011;7731;50.720;6.912;2022-12-18T08:16:50;19.33;;;10.90;;
15256;SDS011;7731;50.720;6.912;2022-12-18T08:19:20;16.57;;;10.63;;
15256;SDS011;7731;50.720;6.912;2022-12-18T08:21:54;18.80;;;10.70;;
15256;SDS011;7731;50.720;6.912;2022-12-18T08:24:24;21.53;;;11.80;;
15256;SDS011;7731;50.720;6.912;2022-12-18T08:26:54;20.30;;;10.73;;
15256;SDS011;7731;50.720;6.912;2022-12-18T08:29:45;19.53;;;12.13;;
15256;SDS011;7731;50.720;6.912;2022-12-18T08:32:15;21.43;;;13.10;;
15256;SDS011;7731;50.720;6.912;2022-12-18T08:34:45;23.00;;;12.20;;
15256;SDS011;7731;50.720;6.912;2022-12-18T08:37:18;19.40;;;11.17;;
15256;SDS011;7731;50.720;6.912;2022-12-18T08:39:48;18.70;;;11.67;;
15256;SDS011;7731;50.720;6.912;2022-12-18T08:42:20;24.67;;;13.87;;
15256;SDS011;7731;50.720;6.912;2022-12-18T08:45:02;32.63;;;20.23;;
15256;SDS011;7731;50.720;6.912;2022-12-18T08:47:34;21.77;;;12.30;;
15256;SDS011;7731;50.720;6.912;2022-12-18T08:50:05;20.57;;;12.37;;
15256;SDS011;7731;50.720;6.912;2022-12-18T08:52:40;21.80;;;13.33;;
15256;SDS011;7731;50.720;6.912;2022-12-18T08:55:12;20.60;;;11.90;;
15256;SDS011;7731;50.720;6.912;2022-12-18T08:57:42;20.93;;;12.90;;
15256;SDS011;7731;50.720;6.912;2022-12-18T09:00:18;19.10;;;12.13;;
15256;SDS011;7731;50.720;6.912;2022-12-18T09:02:48;20.77;;;12.87;;
15256;SDS011;7731;50.720;6.912;2022-12-18T09:05:18;20.27;;;11.60;;
15256;SDS011;7731;50.720;6.912;2022-12-18T09:07:55;24.17;;;13.47;;
15256;SDS011;7731;50.720;6.912;2022-12-18T09:10:25;17.47;;;10.80;;
15256;SDS011;7731;50.720;6.912;2022-12-18T09:12:55;16.87;;;10.73;;
15256;SDS011;7731;50.720;6.912;2022-12-18T09:15:25;19.50;;;10.73;;
15256;SDS011;7731;50.720;6.912;2022-12-18T09:17:55;15.63;;;9.87;;
15256;SDS011;7731;50.720;6.912;2022-12-18T09:20:25;18.53;;;10.43;;
15256;SDS011;7731;50.720;6.912;2022-12-18T09:23:03;18.67;;;11.67;;
15256;SDS011;7731;50.720;6.912;2022-12-18T09:25:35;17.03;;;11.13;;
15256;SDS011;7731;50.720;6.912;2022-12-18T09:28:10;17.20;;;10.43;;
15256;SDS011;7731;50.720;6.912;2022-12-18T09:30:46;13.97;;;9.97;;
15256;SDS011;7731;50.720;6.912;2022-12-18T09:33:19;15.93;;;10.67;;
15256;SDS011;7731;50.720;6.912;2022-12-18T09:35:49;15.87;;;10.23;;
15256;SDS011;7731;50.720;6.912;2022-12-18T09:38:22;18.90;;;10.23;;
15256;SDS011;7731;50.720;6.912;2022-12-18T09:40:53;16.47;;;10.20;;
15256;SDS011;7731;50.720;6.912;2022-12-18T09:43:30;16.47;;;11.33;;
15256;SDS011;7731;50.720;6.912;2022-12-18T09:46:11;16.73;;;10.40;;
15256;SDS011;7731;50.720;6.912;2022-12-18T09:48:52;14.97;;;10.23;;
15256;SDS011;7731;50.720;6.912;2022-12-18T09:51:28;16.57;;;10.20;;
15256;SDS011;7731;50.720;6.912;2022-12-18T09:54:11;15.83;;;10.20;;
15256;SDS011;7731;50.720;6.912;2022-12-18T09:56:47;17.70;;;10.07;;
15256;SDS011;7731;50.720;6.912;2022-12-18T09:59:20;20.07;;;11.27;;
15256;SDS011;7731;50.720;6.912;2022-12-18T10:01:56;15.60;;;9.90;;
15256;SDS011;7731;50.720;6.912;2022-12-18T10:04:27;16.00;;;9.33;;
15256;SDS011;7731;50.720;6.912;2022-12-18T10:07:02;15.40;;;9.67;;
15256;SDS011;7731;50.720;6.912;2022-12-18T10:09:45;15.37;;;10.27;;
15256;SDS011;7731;50.720;6.912;2022-12-18T10:12:30;14.93;;;10.40;;
15256;SDS011;7731;50.720;6.912;2022-12-18T10:15:13;18.97;;;10.97;;
15256;SDS011;7731;50.720;6.912;2022-12-18T10:17:54;17.73;;;9.83;;
15256;SDS011;7731;50.720;6.912;2022-12-18T10:20:47;14.90;;;9.67;;
15256;SDS011;7731;50.720;6.912;2022-12-18T10:23:24;16.20;;;10.77;;
15256;SDS011;7731;50.720;6.912;2022-12-18T10:26:05;18.33;;;11.63;;
15256;SDS011;7731;50.720;6.912;2022-12-18T10:28:39;15.27;;;10.30;;
15256;SDS011;7731;50.720;6.912;2022-12-18T10:31:12;15.60;;;10.20;;
15256;SDS011;7731;50.720;6.912;2022-12-18T10:33:50;15.87;;;10.40;;
15256;SDS011;7731;50.720;6.912;2022-12-18T10:36:23;15.50;;;10.73;;
15256;SDS011;7731;50.720;6.912;2022-12-18T10:38:53;16.67;;;9.80;;
15256;SDS011;7731;50.720;6.912;2022-12-18T10:41:51;19.73;;;10.30;;
15256;SDS011;7731;50.720;6.912;2022-12-18T10:44:41;17.60;;;10.50;;
15256;SDS011;7731;50.720;6.912;2022-12-18T10:47:12;15.47;;;10.07;;
15256;SDS011;7731;50.720;6.912;2022-12-18T10:49:49;18.27;;;10.77;;
15256;SDS011;7731;50.720;6.912;2022-12-18T10:52:24;20.57;;;11.43;;
15256;SDS011;7731;50.720;6.912;2022-12-18T10:54:57;17.23;;;10.77;;
15256;SDS011;7731;50.720;6.912;2022-12-18T10:57:36;14.77;;;10.23;;
15256;SDS011;7731;50.720;6.912;2022-12-18T11:00:22;20.00;;;11.63;;
15256;SDS011;7731;50.720;6.912;2022-12-18T11:03:02;16.77;;;11.27;;
15256;SDS011;7731;50.720;6.912;2022-12-18T11:06:27;16.27;;;10.37;;
15256;SDS011;7731;50.720;6.912;2022-12-18T11:09:02;19.57;;;12.10;;
15256;SDS011;7731;50.720;6.912;2022-12-18T11:11:48;23.47;;;12.27;;
15256;SDS011;7731;50.720;6.912;2022-12-18T11:14:24;16.93;;;11.13;;
15256;SDS011;7731;50.720;6.912;2022-12-18T11:16:58;18.57;;;11.77;;
15256;SDS011;7731;50.720;6.912;2022-12-18T11:19:52;21.27;;;11.70;;
15256;SDS011;7731;50.720;6.912;2022-12-18T11:22:25;17.77;;;11.23;;
15256;SDS011;7731;50.720;6.912;2022-12-18T11:24:59;18.47;;;11.50;;
15256;SDS011;7731;50.720;6.912;2022-12-18T11:27:53;19.73;;;11.30;;
15256;SDS011;7731;50.720;6.912;2022-12-18T11:30:30;18.03;;;11.10;;
15256;SDS011;7731;50.720;6.912;2022-12-18T11:33:04;20.13;;;11.07;;
15256;SDS011;7731;50.720;6.912;2022-12-18T11:35:40;18.73;;;11.70;;
15256;SDS011;7731;50.720;6.912;2022-12-18T11:38:20;18.10;;;11.17;;
15256;SDS011;7731;50.720;6.912;2022-12-18T11:40:55;17.67;;;11.10;;
15256;SDS011;7731;50.720;6.912;2022-12-18T11:43:34;19.90;;;11.63;;
15256;SDS011;7731;50.720;6.912;2022-12-18T11:46:14;19.30;;;12.00;;
15256;SDS011;7731;50.720;6.912;2022-12-18T11:48:54;20.37;;;12.40;;
15256;SDS011;7731;50.720;6.912;2022-12-18T11:51:37;18.80;;;11.13;;
15256;SDS011;7731;50.720;6.912;2022-12-18T11:54:14;19.33;;;11.63;;
15256;SDS011;7731;50.720;6.912;2022-12-18T11:56:47;19.43;;;11.00;;
15256;SDS011;7731;50.720;6.912;2022-12-18T11:59:32;20.33;;;12.90;;
15256;SDS011;7731;50.720;6.912;2022-12-18T12:02:24;18.53;;;11.10;;
15256;SDS011;7731;50.720;6.912;2022-12-18T12:05:43;21.07;;;11.67;;
15256;SDS011;7731;50.720;6.912;2022-12-18T12:08:38;20.17;;;13.23;;
15256;SDS011;7731;50.720;6.912;2022-12-18T12:11:29;18.47;;;11.97;;
15256;SDS011;7731;50.720;6.912;2022-12-18T12:14:23;20.60;;;12.60;;
15256;SDS011;7731;50.720;6.912;2022-12-18T12:17:19;20.40;;;12.20;;
15256;SDS011;7731;50.720;6.912;2022-12-18T12:20:07;17.87;;;10.80;;
15256;SDS011;7731;50.720;6.912;2022-12-18T12:22:50;25.27;;;14.13;;
15256;SDS011;7731;50.720;6.912;2022-12-18T12:25:33;21.03;;;13.37;;
15256;SDS011;7731;50.720;6.912;2022-12-18T12:28:14;21.00;;;13.40;;
15256;SDS011;7731;50.720;6.912;2022-12-18T12:31:54;19.90;;;11.60;;
15256;SDS011;7731;50.720;6.912;2022-12-18T12:34:41;19.90;;;11.60;;
15256;SDS011;7731;50.720;6.912;2022-12-18T12:37:36;18.53;;;11.67;;
15256;SDS011;7731;50.720;6.912;2022-12-18T12:40:23;22.97;;;14.13;;
15256;SDS011;7731;50.720;6.912;2022-12-18T12:43:21;21.80;;;13.00;;
15256;SDS011;7731;50.720;6.912;2022-12-18T12:46:03;21.00;;;11.87;;
15256;SDS011;7731;50.720;6.912;2022-12-18T12:48:38;20.47;;;12.67;;
15256;SDS011;7731;50.720;6.912;2022-12-18T12:51:19;19.53;;;11.43;;
15256;SDS011;7731;50.720;6.912;2022-12-18T12:53:56;23.97;;;13.80;;
15256;SDS011;7731;50.720;6.912;2022-12-18T12:56:32;21.83;;;11.20;;
15256;SDS011;7731;50.720;6.912;2022-12-18T12:59:13;20.53;;;12.80;;
15256;SDS011;7731;50.720;6.912;2022-12-18T13:02:05;24.83;;;13.27;;
15256;SDS011;7731;50.720;6.912;2022-12-18T13:05:09;20.93;;;12.50;;
15256;SDS011;7731;50.720;6.912;2022-12-18T13:07:55;20.00;;;12.40;;
15256;SDS011;7731;50.720;6.912;2022-12-18T13:10:36;21.83;;;11.80;;
15256;SDS011;7731;50.720;6.912;2022-12-18T13:13:09;22.23;;;13.63;;
15256;SDS011;7731;50.720;6.912;2022-12-18T13:16:03;20.73;;;12.27;;
15256;SDS011;7731;50.720;6.912;2022-12-18T13:18:36;24.50;;;14.30;;
15256;SDS011;7731;50.720;6.912;2022-12-18T13:21:11;22.13;;;13.40;;
15256;SDS011;7731;50.720;6.912;2022-12-18T13:23:58;18.97;;;11.93;;
15256;SDS011;7731;50.720;6.912;2022-12-18T13:26:50;22.73;;;13.70;;
15256;SDS011;7731;50.720;6.912;2022-12-18T13:32:19;24.17;;;13.87;;
15256;SDS011;7731;50.720;6.912;2022-12-18T13:38:19;22.77;;;13.30;;
15256;SDS011;7731;50.720;6.912;2022-12-18T13:40:58;24.60;;;14.93;;
15256;SDS011;7731;50.720;6.912;2022-12-18T13:43:33;23.80;;;14.23;;
15256;SDS011;7731;50.720;6.912;2022-12-18T13:46:19;28.53;;;15.57;;
15256;SDS011;7731;50.720;6.912;2022-12-18T13:48:57;22.20;;;14.77;;
15256;SDS011;7731;50.720;6.912;2022-12-18T13:51:33;22.77;;;13.17;;
15256;SDS011;7731;50.720;6.912;2022-12-18T13:54:06;25.37;;;14.30;;
15256;SDS011;7731;50.720;6.912;2022-12-18T13:56:53;25.47;;;14.27;;
15256;SDS011;7731;50.720;6.912;2022-12-18T13:59:24;22.47;;;13.00;;
15256;SDS011;7731;50.720;6.912;2022-12-18T14:01:59;23.13;;;13.60;;
15256;SDS011;7731;50.720;6.912;2022-12-18T14:04:39;23.90;;;13.53;;
15256;SDS011;7731;50.720;6.912;2022-12-18T14:07:10;21.03;;;13.10;;
15256;SDS011;7731;50.720;6.912;2022-12-18T14:09:47;22.17;;;13.13;;
15256;SDS011;7731;50.720;6.912;2022-12-18T14:12:47;26.93;;;14.93;;
15256;SDS011;7731;50.720;6.912;2022-12-18T14:15:31;24.73;;;13.10;;
15256;SDS011;7731;50.720;6.912;2022-12-18T14:18:14;24.73;;;13.57;;
15256;SDS011;7731;50.720;6.912;2022-12-18T14:20:52;28.40;;;15.20;;
15256;SDS011;7731;50.720;6.912;2022-12-18T14:23:31;23.37;;;13.80;;
15256;SDS011;7731;50.720;6.912;2022-12-18T14:26:19;21.87;;;13.53;;
15256;SDS011;7731;50.720;6.912;2022-12-18T14:28:58;26.77;;;14.00;;
15256;SDS011;7731;50.720;6.912;2022-12-18T14:32:03;29.63;;;15.80;;
15256;SDS011;7731;50.720;6.912;2022-12-18T14:34:45;26.73;;;14.57;;
15256;SDS011;7731;50.720;6.912;2022-12-18T14:37:18;28.53;;;16.03;;
15256;SDS011;7731;50.720;6.912;2022-12-18T14:39:54;27.90;;;16.10;;
15256;SDS011;7731;50.720;6.912;2022-12-18T14:42:35;24.30;;;13.80;;
15256;SDS011;7731;50.720;6.912;2022-12-18T14:48:15;22.43;;;13.00;;
15256;SDS011;7731;50.720;6.912;2022-12-18T14:50:56;25.63;;;14.77;;
15256;SDS011;7731;50.720;6.912;2022-12-18T14:53:36;28.23;;;16.00;;
15256;SDS011;7731;50.720;6.912;2022-12-18T14:56:16;29.40;;;16.20;;
15256;SDS011;7731;50.720;6.912;2022-12-18T14:58:50;24.67;;;14.87;;
15256;SDS011;7731;50.720;6.912;2022-12-18T15:01:31;21.83;;;12.57;;
15256;SDS011;7731;50.720;6.912;2022-12-18T15:04:22;27.53;;;15.27;;
15256;SDS011;7731;50.720;6.912;2022-12-18T15:07:04;31.03;;;16.60;;
15256;SDS011;7731;50.720;6.912;2022-12-18T15:10:00;26.77;;;14.97;;
15256;SDS011;7731;50.720;6.912;2022-12-18T15:12:39;24.13;;;14.33;;
15256;SDS011;7731;50.720;6.912;2022-12-18T15:18:18;29.20;;;15.30;;
15256;SDS011;7731;50.720;6.912;2022-12-18T15:20:53;29.63;;;15.67;;
15256;SDS011;7731;50.720;6.912;2022-12-18T15:23:27;32.83;;;17.00;;
15256;SDS011;7731;50.720;6.912;2022-12-18T15:26:05;29.27;;;16.67;;
15256;SDS011;7731;50.720;6.912;2022-12-18T15:28:43;29.43;;;16.53;;
15256;SDS011;7731;50.720;6.912;2022-12-18T15:31:21;27.80;;;14.43;;
15256;SDS011;7731;50.720;6.912;2022-12-18T15:34:09;29.07;;;15.43;;
15256;SDS011;7731;50.720;6.912;2022-12-18T15:36:47;25.33;;;14.80;;
15256;SDS011;7731;50.720;6.912;2022-12-18T15:39:19;29.07;;;17.00;;
15256;SDS011;7731;50.720;6.912;2022-12-18T15:41:49;31.37;;;17.77;;
15256;SDS011;7731;50.720;6.912;2022-12-18T15:44:34;28.03;;;16.90;;